HEPS

Port Said Airport

Port Said, Egypt
METAR HEPS 231400Z 52015KT CAVOK 27/22 Q1015 NOSIG
Observed Flight Rules
May-23 @ 14:00 UTC (an hour ago) Visual Flight Rules
Visibility Clouds
10,000+ meters
  • Clear skies
Temperatures Readings
Current 27°C / 81°F
Dewpoint 22°C / 72°F
Humidity 74%
Altimeter 29.97" Hg
Pressure 1015 hPa
Elevation 6
METAR HEPS 231400Z 52015KT CAVOK 27/22 Q1015 NOSIG
Observed Flight Rules
May-23 @ 14:00 UTC
(an hour ago)
VFR
Clouds
  • Clear skies
Temperature Dewpoint
27°C / 81°F 22°C / 72°F
Humidity Altimeter Pressure
74% 29.97" Hg 1015 hPa